Chancellor, South Dakota
Current Conditions -  °F | °C
As of 7:37 AM on Friday 24 Oct 2014 (Local Time) from KFSD Reporting Station
Haze Haze  
Wind Chill: 50°   Ceiling: 20000
Heat Index: 50°   Visibility: 2.5mi
Dew Point: 49°   Wind: 3mph
Humidity: 96%   Direction: 230°SW
Pressure: 29.85"   Gusts: NA
Location:  43.37°N, 96.99°W
Report Text: KFSD 241237Z 23003KT 2 1/2SM BR BKN200 10/09 A2985 RMK AO2 VIS 1 3/4V3 T01000094
Loading
Personal Weather Stations






























Interactive Weather Map
Tropical Storm Tracking
New forecast layout! Learn more

10-Day Weather Forecast

Advertisements
Track Severe Weather on mobile